Time;durP1;ratioP1;P1;durP2;ratioP2;P2;SDS_P1;SDS_P2;PMS_P1;PMS_P2;Temp;Humidity;BMP_temperature;BMP_pressure;BME280_temperature;BME280_humidity;BME280_pressure;Samples;Min_cycle;Max_cycle;Signal;HPM_P1;HPM_P2
2021/08/31 00:00:21;;;;;;;19.42;6.57;;;19.70;98.50;;;;;;4248786;27;20100;-63
2021/08/31 00:02:24;;;;;;;19.35;6.78;;;19.70;98.30;;;;;;4249853;27;20357;-64
2021/08/31 00:04:27;;;;;;;15.65;6.40;;;19.60;98.60;;;;;;4248725;27;20518;-63
2021/08/31 00:06:30;;;;;;;25.30;7.40;;;19.60;98.60;;;;;;4252687;27;20052;-64
2021/08/31 00:08:35;;;;;;;31.42;7.35;;;19.40;98.80;;;;;;4254421;27;20055;-64
2021/08/31 00:10:37;;;;;;;19.45;6.25;;;19.50;98.70;;;;;;4251078;27;20062;-63
2021/08/31 00:12:42;;;;;;;17.30;6.15;;;19.60;98.50;;;;;;4250192;27;20062;-63
2021/08/31 00:14:45;;;;;;;19.23;6.15;;;19.60;98.60;;;;;;4253493;27;20055;-70
2021/08/31 00:16:48;;;;;;;25.02;7.15;;;19.80;98.20;;;;;;4253569;27;20051;-64
2021/08/31 00:18:51;;;;;;;21.10;6.63;;;19.70;98.10;;;;;;4255154;27;20047;-63
2021/08/31 00:20:54;;;;;;;22.52;7.25;;;19.80;98.10;;;;;;4250332;27;20047;-64
2021/08/31 00:22:58;;;;;;;21.80;7.82;;;19.80;97.90;;;;;;4252928;27;20482;-64
2021/08/31 00:25:03;;;;;;;22.83;7.07;;;19.60;98.10;;;;;;4253485;27;20051;-64
2021/08/31 00:27:06;;;;;;;20.23;7.60;;;19.60;98.20;;;;;;4255400;27;20059;-64
2021/08/31 00:29:09;;;;;;;18.38;6.95;;;19.60;98.20;;;;;;4255297;27;20089;-64
2021/08/31 00:31:12;;;;;;;29.73;7.22;;;19.60;98.20;;;;;;4252866;27;20055;-63
2021/08/31 00:33:16;;;;;;;23.15;6.55;;;19.50;98.60;;;;;;4250297;27;20051;-63
2021/08/31 00:35:18;;;;;;;21.52;6.63;;;19.60;98.10;;;;;;4248377;27;20111;-63
2021/08/31 00:37:21;;;;;;;25.05;6.65;;;19.70;98.00;;;;;;4249334;27;20115;-63
2021/08/31 00:39:24;;;;;;;22.25;6.28;;;19.70;98.00;;;;;;4247653;27;20081;-63
2021/08/31 00:41:29;;;;;;;20.55;6.70;;;19.80;97.80;;;;;;4248654;27;20051;-63
2021/08/31 00:43:43;;;;;;;22.50;6.28;;;19.80;97.70;;;;;;4251139;27;20580;-64
2021/08/31 00:45:46;;;;;;;21.45;5.82;;;19.70;97.90;;;;;;4249669;27;20067;-64
2021/08/31 00:47:49;;;;;;;20.75;6.72;;;19.80;97.90;;;;;;4249612;27;20279;-64
2021/08/31 00:49:52;;;;;;;23.40;5.65;;;19.90;97.50;;;;;;4252481;27;20550;-63
2021/08/31 00:51:58;;;;;;;19.60;5.15;;;19.90;97.60;;;;;;4253676;27;20460;-63
2021/08/31 00:54:01;;;;;;;22.23;5.90;;;19.80;97.40;;;;;;4248439;27;20051;-63
2021/08/31 00:56:07;;;;;;;17.67;5.65;;;19.90;97.50;;;;;;4248459;27;20059;-63
2021/08/31 00:58:11;;;;;;;19.05;6.18;;;19.80;97.40;;;;;;4248895;27;20107;-64
2021/08/31 01:00:15;;;;;;;21.17;5.38;;;19.80;97.60;;;;;;4247853;27;20108;-63
2021/08/31 01:02:18;;;;;;;19.45;5.72;;;19.70;97.60;;;;;;4247447;27;20112;-63
2021/08/31 01:04:23;;;;;;;17.17;5.28;;;19.80;97.40;;;;;;4247671;27;20051;-64
2021/08/31 01:06:26;;;;;;;22.40;6.28;;;19.90;97.30;;;;;;4247913;27;20194;-64
2021/08/31 01:08:29;;;;;;;18.00;5.80;;;19.80;97.40;;;;;;4249091;27;20111;-63
2021/08/31 01:10:32;;;;;;;20.65;5.53;;;19.60;97.50;;;;;;4247684;27;20059;-63
2021/08/31 01:12:36;;;;;;;18.88;5.63;;;19.70;97.50;;;;;;4246540;27;20051;-63
2021/08/31 01:14:40;;;;;;;21.98;5.55;;;19.60;97.40;;;;;;4247824;27;20587;-63
2021/08/31 01:16:44;;;;;;;18.55;5.75;;;19.60;97.50;;;;;;4249589;27;20059;-64
2021/08/31 01:18:47;;;;;;;18.33;4.78;;;19.60;97.50;;;;;;4231096;28;20051;-64
2021/08/31 01:20:50;;;;;;;17.58;5.60;;;19.80;97.20;;;;;;4247412;27;20103;-63
2021/08/31 01:22:53;;;;;;;20.67;5.43;;;19.80;97.20;;;;;;4247835;27;20056;-64
2021/08/31 01:24:58;;;;;;;21.63;5.22;;;19.70;97.50;;;;;;4248245;27;20107;-63
2021/08/31 01:27:02;;;;;;;16.35;5.32;;;19.80;97.20;;;;;;4247037;27;20051;-63
2021/08/31 01:29:05;;;;;;;21.42;6.07;;;19.80;96.80;;;;;;4247346;27;20112;-63
2021/08/31 01:31:08;;;;;;;17.95;5.65;;;19.70;97.10;;;;;;4247600;27;20120;-63
2021/08/31 01:33:12;;;;;;;24.08;6.03;;;19.70;97.20;;;;;;4252754;27;20107;-63
2021/08/31 01:35:14;;;;;;;21.90;6.32;;;19.60;97.30;;;;;;4252574;27;20043;-64
2021/08/31 01:37:18;;;;;;;21.20;5.50;;;19.40;97.70;;;;;;4247012;27;20051;-64
2021/08/31 01:39:21;;;;;;;24.65;5.57;;;19.50;97.50;;;;;;4247147;27;20629;-64
2021/08/31 01:41:26;;;;;;;16.95;5.57;;;19.50;97.50;;;;;;4247384;27;20051;-63
2021/08/31 01:43:29;;;;;;;23.40;5.35;;;19.40;97.70;;;;;;4246729;27;20499;-64
2021/08/31 01:45:42;;;;;;;29.10;6.07;;;19.40;97.70;;;;;;4247367;27;20112;-63
2021/08/31 01:47:45;;;;;;;14.85;5.53;;;19.40;97.70;;;;;;4246674;27;20104;-64
2021/08/31 01:49:48;;;;;;;23.73;5.78;;;19.50;97.60;;;;;;4246887;27;20116;-63
2021/08/31 01:51:51;;;;;;;18.25;5.13;;;19.40;97.60;;;;;;4246377;27;20059;-63
2021/08/31 01:53:54;;;;;;;17.65;5.75;;;19.40;97.70;;;;;;4248115;27;20611;-63
2021/08/31 01:55:57;;;;;;;18.20;5.53;;;19.30;97.80;;;;;;4246807;27;20147;-64
2021/08/31 01:58:02;;;;;;;20.63;6.28;;;19.20;98.00;;;;;;4248373;27;20063;-63
2021/08/31 02:00:05;;;;;;;;;;;19.20;97.90;;;;;;4232215;28;20051;-63
2021/08/31 02:02:09;;;;;;;17.85;5.68;;;19.30;97.90;;;;;;4246471;27;19972;-63
2021/08/31 02:04:12;;;;;;;17.02;5.55;;;19.30;97.70;;;;;;4246854;27;20040;-63
2021/08/31 02:06:15;;;;;;;27.77;6.35;;;19.30;98.00;;;;;;4247533;27;20179;-63
2021/08/31 02:08:18;;;;;;;19.23;5.90;;;19.20;98.30;;;;;;4228786;28;20063;-64
2021/08/31 02:10:21;;;;;;;26.27;5.95;;;19.30;98.10;;;;;;4246879;27;20054;-63
2021/08/31 02:12:24;;;;;;;22.55;5.55;;;19.30;98.10;;;;;;4247345;27;20120;-64
2021/08/31 02:14:28;;;;;;;20.83;5.88;;;19.30;98.00;;;;;;4257784;27;20059;-64
2021/08/31 02:16:31;;;;;;;27.85;6.05;;;19.20;98.30;;;;;;4256740;27;20047;-63
2021/08/31 02:18:34;;;;;;;21.88;5.57;;;19.10;98.40;;;;;;4251646;27;20070;-64
2021/08/31 02:20:37;;;;;;;18.50;5.13;;;19.20;98.30;;;;;;4246086;27;20055;-63
2021/08/31 02:22:41;;;;;;;18.55;5.25;;;19.30;98.10;;;;;;4246689;27;20055;-63
2021/08/31 02:24:44;;;;;;;25.02;6.07;;;19.30;98.20;;;;;;4229041;28;20051;-64
2021/08/31 02:26:49;;;;;;;19.50;5.47;;;19.20;98.20;;;;;;4249886;27;20054;-64
2021/08/31 02:28:52;;;;;;;20.63;5.63;;;19.10;98.70;;;;;;4246690;27;20059;-63
2021/08/31 02:30:56;;;;;;;17.38;5.28;;;19.10;98.60;;;;;;4246392;27;20051;-64
2021/08/31 02:33:03;;;;;;;21.77;5.82;;;19.10;98.80;;;;;;4246386;27;20051;-63
2021/08/31 02:35:07;;;;;;;18.05;5.85;;;19.00;98.60;;;;;;4228296;28;20055;-63
2021/08/31 02:37:10;;;;;;;16.33;5.27;;;19.10;98.80;;;;;;4248560;27;20051;-63
2021/08/31 02:39:13;;;;;;;17.17;5.07;;;19.10;98.70;;;;;;4249520;27;20466;-64
2021/08/31 02:41:16;;;;;;;21.63;5.88;;;19.20;98.40;;;;;;4246522;27;20059;-63
2021/08/31 02:43:19;;;;;;;18.23;4.95;;;19.20;98.50;;;;;;4247596;27;20096;-64
2021/08/31 02:45:22;;;;;;;19.33;5.15;;;19.30;98.10;;;;;;4247018;27;20112;-64
2021/08/31 02:47:26;;;;;;;26.02;6.55;;;19.40;97.90;;;;;;4247122;27;20112;-63
2021/08/31 02:49:29;;;;;;;22.50;6.32;;;19.50;97.80;;;;;;4247870;27;20047;-64
2021/08/31 02:51:32;;;;;;;23.25;6.57;;;19.50;97.70;;;;;;4251384;27;20055;-65
2021/08/31 02:53:35;;;;;;;14.70;5.53;;;19.50;97.60;;;;;;4249618;28;20055;-64
2021/08/31 02:55:38;;;;;;;26.05;6.45;;;19.50;97.70;;;;;;4247225;28;20055;-63
2021/08/31 02:57:42;;;;;;;16.40;5.38;;;19.50;97.80;;;;;;4249215;28;20055;-64
2021/08/31 02:59:45;;;;;;;20.95;6.53;;;19.50;97.70;;;;;;4252375;28;20055;-64
2021/08/31 03:02:07;;;;;;;17.42;5.53;;;19.40;97.80;;;;;;4250413;28;20083;-64
2021/08/31 03:04:12;;;;;;;25.15;6.45;;;19.30;98.10;;;;;;4249578;28;20120;-63
2021/08/31 03:06:15;;;;;;;19.20;5.88;;;19.20;98.30;;;;;;4252364;28;20055;-66
2021/08/31 03:08:17;;;;;;;27.15;6.35;;;19.30;98.00;;;;;;4249037;28;20055;-64
2021/08/31 03:10:23;;;;;;;19.20;6.05;;;19.30;98.10;;;;;;4246897;28;20059;-63
2021/08/31 03:12:25;;;;;;;16.40;5.70;;;19.30;98.10;;;;;;4246130;28;20104;-63
2021/08/31 03:14:29;;;;;;;23.27;6.07;;;19.30;98.10;;;;;;4247107;28;20499;-63
2021/08/31 03:16:33;;;;;;;18.85;6.53;;;19.40;98.10;;;;;;4247199;28;20476;-63
2021/08/31 03:18:36;;;;;;;19.73;7.03;;;19.40;97.70;;;;;;4246074;28;20059;-63
2021/08/31 03:20:40;;;;;;;19.20;6.90;;;19.40;97.80;;;;;;4246342;28;20055;-64
2021/08/31 03:22:43;;;;;;;17.98;6.70;;;19.40;97.90;;;;;;4246721;28;20059;-68
2021/08/31 03:24:46;;;;;;;17.48;5.97;;;19.50;97.80;;;;;;4247286;28;20051;-67
2021/08/31 03:26:49;;;;;;;18.42;6.18;;;19.40;98.00;;;;;;4246386;28;20124;-64
2021/08/31 03:28:52;;;;;;;33.40;7.13;;;19.40;97.90;;;;;;4247945;28;20506;-63
2021/08/31 03:30:56;;;;;;;27.80;7.80;;;19.40;98.00;;;;;;4247086;28;20112;-64
2021/08/31 03:32:59;;;;;;;17.88;6.25;;;19.40;97.80;;;;;;4246916;28;20426;-63
2021/08/31 03:35:02;;;;;;;17.63;6.25;;;19.30;98.00;;;;;;4247555;27;20067;-67
2021/08/31 03:37:06;;;;;;;21.63;7.25;;;19.40;98.10;;;;;;4249944;27;20055;-64
2021/08/31 03:39:09;;;;;;;20.83;7.45;;;19.50;97.90;;;;;;4250528;27;20070;-63
2021/08/31 03:41:12;;;;;;;22.80;7.45;;;19.50;97.60;;;;;;4254090;27;20059;-64
2021/08/31 03:43:16;;;;;;;17.75;7.47;;;19.40;97.90;;;;;;4256007;27;20039;-63
2021/08/31 03:45:20;;;;;;;21.15;7.10;;;19.40;98.10;;;;;;4252003;27;20104;-63
2021/08/31 03:47:23;;;;;;;18.38;7.82;;;19.40;98.00;;;;;;4250324;27;20499;-64
2021/08/31 03:49:26;;;;;;;15.60;6.18;;;19.30;98.00;;;;;;4249417;27;20111;-63
2021/08/31 03:51:29;;;;;;;23.10;7.38;;;19.50;97.90;;;;;;4248879;27;20127;-63
2021/08/31 03:53:35;;;;;;;29.55;7.68;;;19.50;97.80;;;;;;4249559;27;20108;-63
2021/08/31 03:55:38;;;;;;;17.20;7.25;;;19.50;97.60;;;;;;4249066;27;20483;-63
2021/08/31 03:57:41;;;;;;;24.42;7.93;;;19.50;97.60;;;;;;4248512;27;20071;-64
2021/08/31 03:59:44;;;;;;;23.40;8.73;;;19.60;97.80;;;;;;4258558;27;20523;-67
2021/08/31 04:01:47;;;;;;;25.13;8.10;;;19.50;97.80;;;;;;4260742;27;20058;-66
2021/08/31 04:03:50;;;;;;;20.67;7.50;;;19.40;97.80;;;;;;4248691;27;20423;-63
2021/08/31 04:05:53;;;;;;;19.58;7.25;;;19.40;97.90;;;;;;4248836;27;20123;-63
2021/08/31 04:07:56;;;;;;;30.25;7.90;;;19.50;97.70;;;;;;4248472;27;20408;-63
2021/08/31 04:10:01;;;;;;;27.55;8.27;;;19.50;97.80;;;;;;4248591;27;20055;-64
2021/08/31 04:12:04;;;;;;;22.23;7.63;;;19.50;97.80;;;;;;4248474;27;20043;-63
2021/08/31 04:14:08;;;;;;;21.80;8.10;;;19.60;97.60;;;;;;4249702;27;20108;-65
2021/08/31 04:16:11;;;;;;;23.00;7.90;;;19.50;97.50;;;;;;4251172;27;20039;-64
2021/08/31 04:18:14;;;;;;;25.13;7.78;;;19.60;97.50;;;;;;4248159;27;20051;-63
2021/08/31 04:20:17;;;;;;;24.80;8.45;;;19.60;97.70;;;;;;4248934;27;20051;-63
2021/08/31 04:22:19;;;;;;;24.73;8.90;;;19.50;97.70;;;;;;4252209;27;20103;-63
2021/08/31 04:24:23;;;;;;;22.65;8.57;;;19.40;97.90;;;;;;4251476;27;20043;-63
2021/08/31 04:26:27;;;;;;;18.38;8.45;;;19.40;98.00;;;;;;4253544;27;20162;-65
2021/08/31 04:28:31;;;;;;;24.15;8.60;;;19.40;98.00;;;;;;4250288;27;20055;-65
2021/08/31 04:30:34;;;;;;;28.08;8.93;;;19.50;97.90;;;;;;4250356;27;20457;-64
2021/08/31 04:32:37;;;;;;;32.08;9.15;;;19.40;97.90;;;;;;4250577;27;20055;-64
2021/08/31 04:34:41;;;;;;;25.98;9.63;;;19.50;97.90;;;;;;4247976;27;20055;-63
2021/08/31 04:36:44;;;;;;;27.63;9.65;;;19.40;98.00;;;;;;4248979;27;20085;-63
2021/08/31 04:38:47;;;;;;;35.83;10.27;;;19.50;97.90;;;;;;4248132;27;20112;-63
2021/08/31 04:40:50;;;;;;;33.20;9.75;;;19.60;97.70;;;;;;4248781;27;20063;-63
2021/08/31 04:42:54;;;;;;;33.28;9.43;;;19.60;97.70;;;;;;4248405;27;20104;-63
2021/08/31 04:44:57;;;;;;;41.90;11.05;;;19.60;97.60;;;;;;4248201;27;20123;-63
2021/08/31 04:47:00;;;;;;;39.70;10.15;;;19.60;97.60;;;;;;4247684;27;20058;-63
2021/08/31 04:49:03;;;;;;;25.70;9.30;;;19.70;97.70;;;;;;4248695;27;20461;-64
2021/08/31 04:51:06;;;;;;;25.17;8.63;;;19.70;97.50;;;;;;4247773;27;20108;-63
2021/08/31 04:53:09;;;;;;;32.55;9.65;;;19.70;97.40;;;;;;4248790;27;20115;-63
2021/08/31 04:55:12;;;;;;;29.92;10.38;;;19.70;97.40;;;;;;4247807;27;20055;-64
2021/08/31 04:57:15;;;;;;;31.90;10.07;;;19.70;97.30;;;;;;4247660;27;20096;-64
2021/08/31 04:59:19;;;;;;;36.42;10.68;;;19.70;97.50;;;;;;4247694;27;20043;-63
2021/08/31 05:01:22;;;;;;;25.90;10.23;;;19.60;97.70;;;;;;4248528;27;20261;-63
2021/08/31 05:03:26;;;;;;;27.52;10.38;;;19.40;98.00;;;;;;4247998;27;20058;-63
2021/08/31 05:05:29;;;;;;;30.90;10.70;;;19.30;98.50;;;;;;4247498;27;20100;-63
2021/08/31 05:07:32;;;;;;;36.25;10.90;;;19.40;98.30;;;;;;4232737;28;20048;-64
2021/08/31 05:09:35;;;;;;;38.25;10.82;;;19.60;98.00;;;;;;4255174;27;20096;-65
2021/08/31 05:11:37;;;;;;;38.78;12.07;;;19.60;98.00;;;;;;4253807;27;20056;-66
2021/08/31 05:13:40;;;;;;;27.77;11.48;;;19.50;98.40;;;;;;4251090;27;20084;-63
2021/08/31 05:15:45;;;;;;;39.22;11.93;;;19.40;98.40;;;;;;4247941;27;20047;-64
2021/08/31 05:17:48;;;;;;;32.17;11.20;;;19.40;98.60;;;;;;4247227;27;20047;-63
2021/08/31 05:19:51;;;;;;;39.40;12.13;;;19.40;98.60;;;;;;4247432;27;20055;-63
2021/08/31 05:21:54;;;;;;;34.67;12.18;;;19.40;98.50;;;;;;4247369;27;20139;-63
2021/08/31 05:23:59;;;;;;;34.60;12.13;;;19.50;98.30;;;;;;4248038;27;20456;-63
2021/08/31 05:26:01;;;;;;;35.17;11.32;;;19.50;98.40;;;;;;4248031;27;20051;-63
2021/08/31 05:28:05;;;;;;;38.17;12.85;;;19.50;98.40;;;;;;4248233;27;20047;-64
2021/08/31 05:30:08;;;;;;;35.90;12.63;;;19.40;98.60;;;;;;4247869;27;20039;-63
2021/08/31 05:32:13;;;;;;;35.03;13.38;;;19.50;98.50;;;;;;4247409;27;20063;-63
2021/08/31 05:34:16;;;;;;;35.42;12.57;;;19.40;98.60;;;;;;4231404;28;20059;-63
2021/08/31 05:36:19;;;;;;;32.38;12.55;;;19.40;98.70;;;;;;4247059;27;20108;-64
2021/08/31 05:38:22;;;;;;;38.42;13.35;;;19.40;98.70;;;;;;4246993;27;20620;-64
2021/08/31 05:40:25;;;;;;;35.42;12.98;;;19.50;98.70;;;;;;4247829;27;20043;-63
2021/08/31 05:42:28;;;;;;;32.58;13.30;;;19.40;98.90;;;;;;4247559;27;20146;-66
2021/08/31 05:44:33;;;;;;;39.95;13.98;;;19.40;98.90;;;;;;4248903;27;20324;-64
2021/08/31 05:46:36;;;;;;;43.88;15.75;;;19.40;98.90;;;;;;4263423;27;20088;-69
2021/08/31 05:48:40;;;;;;;35.83;14.20;;;19.50;98.80;;;;;;4253952;27;20043;-63
2021/08/31 05:50:43;;;;;;;41.30;14.25;;;19.40;99.10;;;;;;4253444;27;20091;-63
2021/08/31 05:52:46;;;;;;;38.80;14.73;;;19.30;99.30;;;;;;4254035;27;20080;-63
2021/08/31 05:54:49;;;;;;;32.45;15.30;;;19.30;99.40;;;;;;4252261;27;20075;-68
2021/08/31 05:56:52;;;;;;;36.10;15.80;;;19.30;99.50;;;;;;4246840;27;20047;-63
2021/08/31 05:58:55;;;;;;;41.05;16.13;;;19.20;99.60;;;;;;4252827;27;20112;-63
2021/08/31 06:00:58;;;;;;;37.50;15.60;;;19.20;99.60;;;;;;4246544;27;20112;-63
2021/08/31 06:03:01;;;;;;;38.33;15.20;;;19.30;99.50;;;;;;4246567;27;20493;-64
2021/08/31 06:05:06;;;;;;;42.97;15.10;;;19.30;99.60;;;;;;4246116;27;20051;-63
2021/08/31 06:07:11;;;;;;;34.20;15.75;;;19.30;99.70;;;;;;4246443;27;20084;-63
2021/08/31 06:09:14;;;;;;;37.15;16.77;;;19.20;99.60;;;;;;4245247;27;20471;-64
2021/08/31 06:11:20;;;;;;;38.15;17.27;;;19.20;99.70;;;;;;4246342;27;20120;-63
2021/08/31 06:13:23;;;;;;;41.10;16.52;;;19.10;99.80;;;;;;4246296;27;20572;-63
2021/08/31 06:15:27;;;;;;;37.70;16.80;;;19.30;99.80;;;;;;4246385;27;20055;-63
2021/08/31 06:17:31;;;;;;;40.15;17.10;;;19.20;99.90;;;;;;4231796;28;20098;-63
2021/08/31 06:19:35;;;;;;;44.70;16.58;;;19.20;99.80;;;;;;4247500;27;20051;-63
2021/08/31 06:21:40;;;;;;;47.60;16.90;;;19.30;99.90;;;;;;4247113;27;20096;-64
2021/08/31 06:23:45;;;;;;;40.80;16.38;;;19.30;99.80;;;;;;4247179;27;20091;-63
2021/08/31 06:25:48;;;;;;;33.13;15.90;;;19.30;99.80;;;;;;4246482;27;20108;-63
2021/08/31 06:27:51;;;;;;;35.75;16.70;;;19.20;99.90;;;;;;4246805;27;20055;-64
2021/08/31 06:29:54;;;;;;;35.65;17.20;;;19.10;99.90;;;;;;4246464;27;20051;-63
2021/08/31 06:31:58;;;;;;;40.75;17.65;;;19.00;99.90;;;;;;4246626;27;20055;-63
2021/08/31 06:34:00;;;;;;;45.50;17.20;;;19.00;99.90;;;;;;4246337;27;20051;-64
2021/08/31 06:36:04;;;;;;;30.42;17.38;;;19.00;99.90;;;;;;4246767;27;20062;-64
2021/08/31 06:38:08;;;;;;;39.25;16.75;;;18.90;99.90;;;;;;4247684;27;20055;-64
2021/08/31 06:40:12;;;;;;;40.10;16.20;;;18.90;99.90;;;;;;4246548;27;20119;-63
2021/08/31 06:42:15;;;;;;;33.70;15.38;;;18.80;99.90;;;;;;4247173;27;20112;-64
2021/08/31 06:44:17;;;;;;;48.35;17.50;;;19.10;99.90;;;;;;4253082;27;20055;-67
2021/08/31 06:46:20;;;;;;;37.58;16.63;;;19.10;99.90;;;;;;4248894;27;20051;-63
2021/08/31 06:48:42;;;;;;;45.85;17.55;;;19.30;99.90;;;;;;4246362;27;20055;-64
2021/08/31 06:50:45;;;;;;;48.22;17.65;;;19.30;99.90;;;;;;4252116;27;20063;-63
2021/08/31 06:52:48;;;;;;;39.97;16.63;;;19.10;99.90;;;;;;4228246;28;20486;-64
2021/08/31 06:54:53;;;;;;;41.28;17.73;;;19.20;99.90;;;;;;4246096;28;20112;-64
2021/08/31 06:56:55;;;;;;;38.60;16.58;;;19.20;99.90;;;;;;4246882;28;20051;-63
2021/08/31 06:58:58;;;;;;;34.70;16.65;;;19.40;99.90;;;;;;4246586;28;20656;-63
2021/08/31 07:01:01;;;;;;;44.47;16.50;;;19.30;99.90;;;;;;4248132;28;20491;-63
2021/08/31 07:03:04;;;;;;;47.22;17.00;;;19.40;99.90;;;;;;4246295;28;20059;-63
2021/08/31 07:05:09;;;;;;;52.05;17.13;;;19.40;99.90;;;;;;4246036;28;20596;-63
2021/08/31 07:07:12;;;;;;;44.42;17.55;;;19.50;99.80;;;;;;4248960;28;20284;-69
2021/08/31 07:09:15;;;;;;;43.85;17.55;;;19.50;99.90;;;;;;4245903;27;20055;-63
2021/08/31 07:11:19;;;;;;;41.28;18.10;;;19.50;99.70;;;;;;4250262;27;20047;-63
2021/08/31 07:13:22;;;;;;;51.67;18.38;;;19.60;99.50;;;;;;4250161;27;20055;-63
2021/08/31 07:15:25;;;;;;;45.08;18.15;;;19.60;99.40;;;;;;4250135;27;20059;-64
2021/08/31 07:17:28;;;;;;;42.88;16.45;;;19.60;99.40;;;;;;4232259;28;20056;-64
2021/08/31 07:19:31;;;;;;;44.38;19.27;;;19.70;99.30;;;;;;4254240;27;20655;-64
2021/08/31 07:21:35;;;;;;;44.65;17.90;;;19.70;99.40;;;;;;4251957;27;20062;-65
2021/08/31 07:23:37;;;;;;;39.25;18.55;;;19.70;99.50;;;;;;4250518;27;20491;-63
2021/08/31 07:25:41;;;;;;;42.28;17.75;;;19.70;99.60;;;;;;4251600;27;20083;-64
2021/08/31 07:27:46;;;;;;;46.92;18.70;;;19.70;99.40;;;;;;4249606;27;20515;-63
2021/08/31 07:29:49;;;;;;;44.55;19.95;;;19.80;99.40;;;;;;4239851;28;20047;-64
2021/08/31 07:31:52;;;;;;;39.20;19.65;;;19.60;99.50;;;;;;4261613;27;20080;-64
2021/08/31 07:33:55;;;;;;;51.35;19.55;;;19.60;99.50;;;;;;4260432;27;20047;-64
2021/08/31 07:35:58;;;;;;;33.85;19.20;;;19.50;99.50;;;;;;4252986;27;20441;-64
2021/08/31 07:38:02;;;;;;;40.17;17.98;;;19.60;99.50;;;;;;4250524;27;20483;-63
2021/08/31 07:40:07;;;;;;;43.72;18.50;;;19.70;99.40;;;;;;4249590;27;20047;-63
2021/08/31 07:42:11;;;;;;;41.03;19.52;;;19.70;99.50;;;;;;4249044;27;20485;-64
2021/08/31 07:44:16;;;;;;;38.60;19.55;;;19.80;99.30;;;;;;4251228;27;20055;-64
2021/08/31 07:46:20;;;;;;;35.63;19.20;;;19.70;99.40;;;;;;4249463;27;20441;-64
2021/08/31 07:48:23;;;;;;;32.67;17.95;;;19.80;99.30;;;;;;4249178;27;20047;-64
2021/08/31 07:50:30;;;;;;;44.20;17.85;;;20.00;99.00;;;;;;4251731;27;20100;-64
2021/08/31 07:52:34;;;;;;;34.30;17.88;;;20.10;98.90;;;;;;4253916;27;20335;-63
2021/08/31 07:54:37;;;;;;;32.97;17.85;;;20.10;98.70;;;;;;4249365;27;20112;-64
2021/08/31 07:56:41;;;;;;;38.40;19.08;;;20.20;98.60;;;;;;4249720;27;20541;-63
2021/08/31 07:58:44;;;;;;;39.22;17.73;;;20.20;98.70;;;;;;4251574;27;20387;-64
2021/08/31 08:00:48;;;;;;;45.20;18.23;;;20.30;98.20;;;;;;4251238;27;20062;-64
2021/08/31 08:02:51;;;;;;;37.88;17.88;;;20.20;98.00;;;;;;4250471;27;20055;-63
2021/08/31 08:04:58;;;;;;;31.98;17.75;;;20.20;98.20;;;;;;4249163;27;20123;-63
2021/08/31 08:07:02;;;;;;;32.80;18.73;;;20.30;98.00;;;;;;4248070;28;20051;-63
2021/08/31 08:09:05;;;;;;;45.45;18.48;;;20.30;97.90;;;;;;4250433;28;20103;-63
2021/08/31 08:11:07;;;;;;;41.83;18.48;;;20.30;97.60;;;;;;4248862;28;20100;-63
2021/08/31 08:13:10;;;;;;;30.75;17.52;;;20.10;97.80;;;;;;4247829;28;20059;-63
2021/08/31 08:15:15;;;;;;;40.08;17.02;;;20.20;97.70;;;;;;4248670;28;20119;-63
2021/08/31 08:17:20;;;;;;;34.65;16.55;;;20.30;97.40;;;;;;4248983;28;20472;-63
2021/08/31 08:19:23;;;;;;;;;;;20.50;97.30;;;;;;4248958;28;20100;-63
2021/08/31 08:21:25;;;;;;;31.40;15.85;;;20.70;97.00;;;;;;4248073;27;19919;-67
2021/08/31 08:23:29;;;;;;;33.22;16.10;;;20.50;96.90;;;;;;4248089;28;20055;-64
2021/08/31 08:25:32;;;;;;;34.42;16.08;;;20.60;96.70;;;;;;4249505;28;20055;-64
2021/08/31 08:27:53;;;;;;;32.65;14.73;;;20.60;96.70;;;;;;4252649;28;20054;-63
2021/08/31 08:29:56;;;;;;;34.60;15.90;;;20.80;96.60;;;;;;4250783;28;20051;-63
2021/08/31 08:31:59;;;;;;;40.20;16.45;;;20.80;96.40;;;;;;4248724;28;20111;-64
2021/08/31 08:34:04;;;;;;;36.00;15.93;;;20.70;95.80;;;;;;4247065;28;20052;-63
2021/08/31 08:36:07;;;;;;;60.33;16.77;;;20.50;95.80;;;;;;4248814;28;20104;-64
2021/08/31 08:38:10;;;;;;;22.90;13.55;;;20.80;95.80;;;;;;4247299;28;20055;-64
2021/08/31 08:40:13;;;;;;;55.15;15.52;;;20.70;95.60;;;;;;4247516;28;20051;-64
2021/08/31 08:42:17;;;;;;;23.38;12.98;;;20.90;95.70;;;;;;4248351;28;20132;-64
2021/08/31 08:44:20;;;;;;;29.25;13.73;;;20.80;95.40;;;;;;4248242;28;20427;-64
2021/08/31 08:46:22;;;;;;;29.98;13.35;;;20.90;95.40;;;;;;4247074;28;20096;-64
2021/08/31 08:48:26;;;;;;;30.55;12.93;;;20.70;95.00;;;;;;4247128;28;20097;-63
2021/08/31 08:50:34;;;;;;;33.38;14.27;;;20.80;95.00;;;;;;4230049;28;20062;-63
2021/08/31 08:52:37;;;;;;;;;;;21.00;94.80;;;;;;4247564;28;20047;-64
2021/08/31 08:54:41;;;;;;;33.53;13.35;;;20.90;94.60;;;;;;4246911;28;19920;-63
2021/08/31 08:56:44;;;;;;;30.98;13.88;;;21.00;94.80;;;;;;4248424;28;20480;-64
2021/08/31 08:58:47;;;;;;;29.42;13.77;;;21.00;95.10;;;;;;4248638;28;20055;-63
2021/08/31 09:00:57;;;;;;;39.65;12.98;;;21.10;95.00;;;;;;4246790;28;20112;-63
2021/08/31 09:03:17;;;;;;;176.75;21.60;;;21.40;94.80;;;;;;4247274;28;20108;-64
2021/08/31 09:05:31;;;;;;;41.55;13.43;;;21.40;94.00;;;;;;4248585;27;20442;-64
2021/08/31 09:07:38;;;;;;;73.95;15.15;;;21.60;94.10;;;;;;4249961;27;20047;-64
2021/08/31 09:09:41;;;;;;;38.35;13.48;;;21.40;94.20;;;;;;4249616;27;20047;-64
2021/08/31 09:11:48;;;;;;;38.40;15.20;;;21.30;93.90;;;;;;4247156;27;20119;-64
2021/08/31 09:13:52;;;;;;;22.60;13.40;;;21.40;93.90;;;;;;4247460;27;20070;-63
2021/08/31 09:15:55;;;;;;;22.52;14.07;;;21.30;93.70;;;;;;4228885;27;20051;-63
2021/08/31 09:18:16;;;;;;;35.90;13.40;;;21.30;94.00;;;;;;4248170;27;20111;-64
2021/08/31 09:20:19;;;;;;;30.20;14.88;;;21.30;93.80;;;;;;4260626;27;20051;-68
2021/08/31 09:22:24;;;;;;;38.33;14.73;;;21.30;94.10;;;;;;4248350;27;20116;-63
2021/08/31 09:24:29;;;;;;;26.98;14.00;;;21.40;94.00;;;;;;4249943;27;20108;-64
2021/08/31 09:26:38;;;;;;;27.95;14.05;;;21.20;93.90;;;;;;4250303;27;20135;-64
2021/08/31 09:28:42;;;;;;;58.70;15.65;;;21.30;94.00;;;;;;4247264;27;20115;-63
2021/08/31 09:30:45;;;;;;;41.45;14.57;;;21.60;93.90;;;;;;4247248;27;20070;-63
2021/08/31 09:33:03;;;;;;;38.75;13.85;;;21.60;93.70;;;;;;4246536;27;20042;-64
2021/08/31 09:35:15;;;;;;;28.17;13.02;;;21.60;93.60;;;;;;4247128;27;20495;-63
2021/08/31 09:37:33;;;;;;;38.20;14.60;;;21.90;93.40;;;;;;4246993;27;20080;-64
2021/08/31 09:39:37;;;;;;;29.15;13.20;;;21.70;93.30;;;;;;4228432;28;20465;-64
2021/08/31 09:41:43;;;;;;;35.78;12.23;;;21.80;93.20;;;;;;4247363;27;20051;-63
2021/08/31 09:43:49;;;;;;;23.20;12.75;;;22.10;93.30;;;;;;4247361;27;20096;-63
2021/08/31 09:45:55;;;;;;;43.25;14.70;;;22.20;92.20;;;;;;4246900;27;20096;-64
2021/08/31 09:47:59;;;;;;;30.48;13.68;;;22.10;92.40;;;;;;4246554;27;20545;-64
2021/08/31 09:50:03;;;;;;;28.00;13.15;;;22.20;92.50;;;;;;4246538;27;20055;-64
2021/08/31 09:52:10;;;;;;;41.45;13.43;;;22.20;92.00;;;;;;4247011;27;20671;-64
2021/08/31 09:54:21;;;;;;;38.53;12.70;;;22.30;92.20;;;;;;4248770;27;20487;-64
2021/08/31 09:56:29;;;;;;;23.55;12.95;;;22.20;92.00;;;;;;4248756;27;20473;-64
2021/08/31 09:58:33;;;;;;;24.50;13.38;;;22.10;92.00;;;;;;4247378;27;20542;-63
2021/08/31 10:00:37;;;;;;;22.83;12.90;;;22.10;91.90;;;;;;4247147;27;20104;-64
2021/08/31 10:02:43;;;;;;;21.83;13.45;;;22.00;92.00;;;;;;4229902;27;20600;-63
2021/08/31 10:04:46;;;;;;;29.70;12.82;;;22.00;92.00;;;;;;4251041;27;20087;-64
2021/08/31 10:06:49;;;;;;;31.55;12.65;;;21.90;92.20;;;;;;4249251;27;20046;-64
2021/08/31 10:08:52;;;;;;;26.33;12.43;;;21.90;91.90;;;;;;4246864;27;20059;-64
2021/08/31 10:10:55;;;;;;;26.17;12.15;;;21.90;92.00;;;;;;4248002;27;20043;-64
2021/08/31 10:13:03;;;;;;;23.75;13.10;;;22.10;91.70;;;;;;4246094;27;20047;-63
2021/08/31 10:15:08;;;;;;;18.48;12.02;;;22.00;91.60;;;;;;4246586;27;20063;-63
2021/08/31 10:17:12;;;;;;;16.42;11.00;;;22.00;91.60;;;;;;4246736;27;20047;-63
2021/08/31 10:19:15;;;;;;;20.33;11.70;;;22.20;91.50;;;;;;4245882;27;20055;-64
2021/08/31 10:21:19;;;;;;;21.80;10.82;;;22.30;91.20;;;;;;4246358;27;20081;-64
2021/08/31 10:23:27;;;;;;;18.55;10.25;;;22.30;91.00;;;;;;4245898;27;20059;-63
2021/08/31 10:25:30;;;;;;;19.08;10.63;;;22.30;90.80;;;;;;4246563;27;20127;-64
2021/08/31 10:27:35;;;;;;;15.73;11.20;;;22.40;90.60;;;;;;4246019;27;20054;-64
2021/08/31 10:29:40;;;;;;;19.20;10.90;;;22.20;90.50;;;;;;4246754;27;20598;-64
2021/08/31 10:31:44;;;;;;;16.00;10.88;;;22.10;90.30;;;;;;4245980;27;20055;-64
2021/08/31 10:33:47;;;;;;;18.88;10.75;;;22.10;90.30;;;;;;4246066;27;20403;-64